Terminal Aerodrome Forecast
Issued by NWS

Home | Current Version | Previous Version | Text Only | Print | Product List | Glossary On
Versions: 1 2 3 4 5 6 7 8 9 10 11 12
000
FTUS45 KFGZ 260520
TAFGCN
TAF
KGCN 260520Z 2606/2706 VRB03KT P6SM SCT070
     FM261500 25010KT P6SM SCT070 OVC100
     FM261800 26010G18KT P6SM SCT080 BKN150 PROB30 2619/2624 P6SM
      -TSRA BKN060CB
     FM270300 VRB03KT P6SM SCT100=

USA.gov is the U.S. government's official web portal to all federal, state and local government web resources and services.